sensor_id;sensor_type;location;lat;lon;timestamp;pressure;altitude;pressure_sealevel;temperature
68743;BMP180;55725;42.758;26.702;2023-03-24T00:00:25;99413.00;;;2.70
68743;BMP180;55725;42.758;26.702;2023-03-24T00:02:05;99407.00;;;2.70
68743;BMP180;55725;42.758;26.702;2023-03-24T00:03:46;99425.00;;;2.80
68743;BMP180;55725;42.758;26.702;2023-03-24T00:05:31;99417.00;;;2.60
68743;BMP180;55725;42.758;26.702;2023-03-24T00:07:12;99420.00;;;2.90
68743;BMP180;55725;42.758;26.702;2023-03-24T00:08:54;99415.00;;;2.80
68743;BMP180;55725;42.758;26.702;2023-03-24T00:10:34;99404.00;;;3.10
68743;BMP180;55725;42.758;26.702;2023-03-24T00:12:18;99404.00;;;2.60
68743;BMP180;55725;42.758;26.702;2023-03-24T00:13:59;99413.00;;;2.90
68743;BMP180;55725;42.758;26.702;2023-03-24T00:15:39;99403.00;;;3.00
68743;BMP180;55725;42.758;26.702;2023-03-24T00:17:20;99405.00;;;3.10
68743;BMP180;55725;42.758;26.702;2023-03-24T00:19:04;99404.00;;;2.60
68743;BMP180;55725;42.758;26.702;2023-03-24T00:20:44;99404.00;;;2.70
68743;BMP180;55725;42.758;26.702;2023-03-24T00:22:25;99404.00;;;2.60
68743;BMP180;55725;42.758;26.702;2023-03-24T00:24:07;99403.00;;;2.50
68743;BMP180;55725;42.758;26.702;2023-03-24T00:25:57;99404.00;;;2.80
68743;BMP180;55725;42.758;26.702;2023-03-24T00:27:37;99400.00;;;2.30
68743;BMP180;55725;42.758;26.702;2023-03-24T00:29:18;99395.00;;;2.60
68743;BMP180;55725;42.758;26.702;2023-03-24T00:30:59;99396.00;;;2.80
68743;BMP180;55725;42.758;26.702;2023-03-24T00:32:41;99401.00;;;3.10
68743;BMP180;55725;42.758;26.702;2023-03-24T00:34:22;99397.00;;;2.80
68743;BMP180;55725;42.758;26.702;2023-03-24T00:36:03;99403.00;;;2.80
68743;BMP180;55725;42.758;26.702;2023-03-24T00:37:44;99390.00;;;3.10
68743;BMP180;55725;42.758;26.702;2023-03-24T00:39:25;99395.00;;;2.50
68743;BMP180;55725;42.758;26.702;2023-03-24T00:41:08;99404.00;;;2.60
68743;BMP180;55725;42.758;26.702;2023-03-24T00:42:52;99399.00;;;2.40
68743;BMP180;55725;42.758;26.702;2023-03-24T00:44:32;99398.00;;;2.60
68743;BMP180;55725;42.758;26.702;2023-03-24T00:46:14;99400.00;;;3.00
68743;BMP180;55725;42.758;26.702;2023-03-24T00:48:06;99396.00;;;2.90
68743;BMP180;55725;42.758;26.702;2023-03-24T00:49:46;99392.00;;;2.70
68743;BMP180;55725;42.758;26.702;2023-03-24T00:51:29;99387.00;;;2.40
68743;BMP180;55725;42.758;26.702;2023-03-24T00:53:10;99389.00;;;2.30
68743;BMP180;55725;42.758;26.702;2023-03-24T00:54:51;99387.00;;;2.00
68743;BMP180;55725;42.758;26.702;2023-03-24T00:56:34;99387.00;;;2.10
68743;BMP180;55725;42.758;26.702;2023-03-24T00:58:17;99384.00;;;2.10
68743;BMP180;55725;42.758;26.702;2023-03-24T00:59:59;99383.00;;;2.10
68743;BMP180;55725;42.758;26.702;2023-03-24T01:01:46;99383.00;;;2.00
68743;BMP180;55725;42.758;26.702;2023-03-24T01:03:26;99382.00;;;2.10
68743;BMP180;55725;42.758;26.702;2023-03-24T01:05:06;99377.00;;;2.80
68743;BMP180;55725;42.758;26.702;2023-03-24T01:06:48;99376.00;;;2.60
68743;BMP180;55725;42.758;26.702;2023-03-24T01:08:31;99380.00;;;2.80
68743;BMP180;55725;42.758;26.702;2023-03-24T01:10:12;99379.00;;;2.80
68743;BMP180;55725;42.758;26.702;2023-03-24T01:11:53;99369.00;;;2.30
68743;BMP180;55725;42.758;26.702;2023-03-24T01:13:33;99379.00;;;2.30
68743;BMP180;55725;42.758;26.702;2023-03-24T01:15:15;99386.00;;;2.60
68743;BMP180;55725;42.758;26.702;2023-03-24T01:16:55;99379.00;;;1.80
68743;BMP180;55725;42.758;26.702;2023-03-24T01:18:37;99381.00;;;2.50
68743;BMP180;55725;42.758;26.702;2023-03-24T01:20:19;99385.00;;;2.00
68743;BMP180;55725;42.758;26.702;2023-03-24T01:22:02;99383.00;;;1.80
68743;BMP180;55725;42.758;26.702;2023-03-24T01:23:42;99389.00;;;2.00
68743;BMP180;55725;42.758;26.702;2023-03-24T01:25:22;99388.00;;;2.60
68743;BMP180;55725;42.758;26.702;2023-03-24T01:27:03;99382.00;;;2.20
68743;BMP180;55725;42.758;26.702;2023-03-24T01:28:43;99389.00;;;2.50
68743;BMP180;55725;42.758;26.702;2023-03-24T01:30:25;99382.00;;;1.90
68743;BMP180;55725;42.758;26.702;2023-03-24T01:32:06;99384.00;;;1.80
68743;BMP180;55725;42.758;26.702;2023-03-24T01:33:46;99376.00;;;2.10
68743;BMP180;55725;42.758;26.702;2023-03-24T01:35:27;99384.00;;;1.70
68743;BMP180;55725;42.758;26.702;2023-03-24T01:37:07;99384.00;;;2.10
68743;BMP180;55725;42.758;26.702;2023-03-24T01:38:47;99385.00;;;2.00
68743;BMP180;55725;42.758;26.702;2023-03-24T01:40:29;99374.00;;;1.80
68743;BMP180;55725;42.758;26.702;2023-03-24T01:42:20;99388.00;;;1.70
68743;BMP180;55725;42.758;26.702;2023-03-24T01:44:01;99382.00;;;1.70
68743;BMP180;55725;42.758;26.702;2023-03-24T01:46:17;99373.00;;;2.00
68743;BMP180;55725;42.758;26.702;2023-03-24T01:47:58;99373.00;;;1.70
68743;BMP180;55725;42.758;26.702;2023-03-24T01:49:40;99371.00;;;1.60
68743;BMP180;55725;42.758;26.702;2023-03-24T01:51:30;99370.00;;;1.90
68743;BMP180;55725;42.758;26.702;2023-03-24T01:53:14;99366.00;;;1.90
68743;BMP180;55725;42.758;26.702;2023-03-24T01:54:56;99365.00;;;2.10
68743;BMP180;55725;42.758;26.702;2023-03-24T01:56:38;99367.00;;;1.90
68743;BMP180;55725;42.758;26.702;2023-03-24T01:58:20;99373.00;;;1.80
68743;BMP180;55725;42.758;26.702;2023-03-24T02:00:02;99363.00;;;2.00
68743;BMP180;55725;42.758;26.702;2023-03-24T02:01:46;99359.00;;;1.80
68743;BMP180;55725;42.758;26.702;2023-03-24T02:03:26;99361.00;;;1.70
68743;BMP180;55725;42.758;26.702;2023-03-24T02:05:09;99356.00;;;1.60
68743;BMP180;55725;42.758;26.702;2023-03-24T02:06:50;99365.00;;;1.80
68743;BMP180;55725;42.758;26.702;2023-03-24T02:08:38;99368.00;;;1.80
68743;BMP180;55725;42.758;26.702;2023-03-24T02:10:20;99365.00;;;2.10
68743;BMP180;55725;42.758;26.702;2023-03-24T02:12:01;99364.00;;;2.00
68743;BMP180;55725;42.758;26.702;2023-03-24T02:13:42;99367.00;;;2.00
68743;BMP180;55725;42.758;26.702;2023-03-24T02:15:22;99370.00;;;2.00
68743;BMP180;55725;42.758;26.702;2023-03-24T02:28:03;99380.00;;;2.00
68743;BMP180;55725;42.758;26.702;2023-03-24T02:47:00;99401.00;;;1.10
68743;BMP180;55725;42.758;26.702;2023-03-24T02:57:33;99399.00;;;2.20
68743;BMP180;55725;42.758;26.702;2023-03-24T02:59:17;99401.00;;;1.80
68743;BMP180;55725;42.758;26.702;2023-03-24T03:01:04;99412.00;;;2.00
68743;BMP180;55725;42.758;26.702;2023-03-24T03:02:56;99410.00;;;2.00
68743;BMP180;55725;42.758;26.702;2023-03-24T03:04:39;99417.00;;;2.00
68743;BMP180;55725;42.758;26.702;2023-03-24T03:06:29;99420.00;;;2.00
68743;BMP180;55725;42.758;26.702;2023-03-24T03:08:11;99424.00;;;1.50
68743;BMP180;55725;42.758;26.702;2023-03-24T03:09:56;99433.00;;;1.80
68743;BMP180;55725;42.758;26.702;2023-03-24T03:11:37;99429.00;;;1.80
68743;BMP180;55725;42.758;26.702;2023-03-24T03:13:29;99425.00;;;2.20
68743;BMP180;55725;42.758;26.702;2023-03-24T03:15:15;99423.00;;;1.90
68743;BMP180;55725;42.758;26.702;2023-03-24T03:17:02;99432.00;;;2.10
68743;BMP180;55725;42.758;26.702;2023-03-24T03:18:49;99436.00;;;1.70
68743;BMP180;55725;42.758;26.702;2023-03-24T03:20:32;99427.00;;;2.10
68743;BMP180;55725;42.758;26.702;2023-03-24T03:22:17;99434.00;;;1.70
68743;BMP180;55725;42.758;26.702;2023-03-24T03:24:01;99423.00;;;1.90
68743;BMP180;55725;42.758;26.702;2023-03-24T03:25:44;99420.00;;;1.70
68743;BMP180;55725;42.758;26.702;2023-03-24T03:27:30;99420.00;;;2.10
68743;BMP180;55725;42.758;26.702;2023-03-24T03:29:14;99405.00;;;1.60
68743;BMP180;55725;42.758;26.702;2023-03-24T03:30:56;99391.00;;;2.00
68743;BMP180;55725;42.758;26.702;2023-03-24T03:32:40;99372.00;;;2.40
68743;BMP180;55725;42.758;26.702;2023-03-24T03:36:21;99365.00;;;2.40
68743;BMP180;55725;42.758;26.702;2023-03-24T03:40:03;99370.00;;;1.90
68743;BMP180;55725;42.758;26.702;2023-03-24T03:41:45;99367.00;;;2.10
68743;BMP180;55725;42.758;26.702;2023-03-24T03:43:26;99366.00;;;1.90
68743;BMP180;55725;42.758;26.702;2023-03-24T03:45:07;99357.00;;;1.50
68743;BMP180;55725;42.758;26.702;2023-03-24T03:46:49;99355.00;;;2.00
68743;BMP180;55725;42.758;26.702;2023-03-24T03:48:29;99367.00;;;1.70
68743;BMP180;55725;42.758;26.702;2023-03-24T03:50:10;99361.00;;;1.90
68743;BMP180;55725;42.758;26.702;2023-03-24T03:51:50;99359.00;;;2.00
68743;BMP180;55725;42.758;26.702;2023-03-24T03:55:26;99360.00;;;1.60
68743;BMP180;55725;42.758;26.702;2023-03-24T03:57:07;99372.00;;;1.90
68743;BMP180;55725;42.758;26.702;2023-03-24T03:58:47;99363.00;;;1.90
68743;BMP180;55725;42.758;26.702;2023-03-24T04:00:29;99355.00;;;1.70
68743;BMP180;55725;42.758;26.702;2023-03-24T04:02:21;99355.00;;;1.40
68743;BMP180;55725;42.758;26.702;2023-03-24T04:05:53;99359.00;;;2.20
68743;BMP180;55725;42.758;26.702;2023-03-24T04:07:41;99361.00;;;1.70
68743;BMP180;55725;42.758;26.702;2023-03-24T04:13:16;99357.00;;;1.70
68743;BMP180;55725;42.758;26.702;2023-03-24T04:20:45;99367.00;;;1.70
68743;BMP180;55725;42.758;26.702;2023-03-24T04:24:21;99366.00;;;2.10
68743;BMP180;55725;42.758;26.702;2023-03-24T04:29:52;99362.00;;;1.70
68743;BMP180;55725;42.758;26.702;2023-03-24T04:31:41;99360.00;;;1.90
68743;BMP180;55725;42.758;26.702;2023-03-24T04:35:41;99360.00;;;2.10
68743;BMP180;55725;42.758;26.702;2023-03-24T04:37:24;99367.00;;;1.70
68743;BMP180;55725;42.758;26.702;2023-03-24T04:39:05;99373.00;;;2.20
68743;BMP180;55725;42.758;26.702;2023-03-24T04:40:46;99372.00;;;1.90
68743;BMP180;55725;42.758;26.702;2023-03-24T04:42:33;99371.00;;;2.10
68743;BMP180;55725;42.758;26.702;2023-03-24T04:44:15;99383.00;;;2.50
68743;BMP180;55725;42.758;26.702;2023-03-24T04:45:56;99378.00;;;2.30
68743;BMP180;55725;42.758;26.702;2023-03-24T04:47:40;99376.00;;;2.10
68743;BMP180;55725;42.758;26.702;2023-03-24T04:49:22;99380.00;;;2.40
68743;BMP180;55725;42.758;26.702;2023-03-24T04:51:04;99385.00;;;2.20
68743;BMP180;55725;42.758;26.702;2023-03-24T04:52:45;99386.00;;;2.10
68743;BMP180;55725;42.758;26.702;2023-03-24T04:54:25;99386.00;;;2.10
68743;BMP180;55725;42.758;26.702;2023-03-24T04:57:47;99384.00;;;2.30
68743;BMP180;55725;42.758;26.702;2023-03-24T04:59:28;99379.00;;;2.70
68743;BMP180;55725;42.758;26.702;2023-03-24T05:01:09;99383.00;;;2.50
68743;BMP180;55725;42.758;26.702;2023-03-24T05:02:50;99384.00;;;2.20
68743;BMP180;55725;42.758;26.702;2023-03-24T05:04:33;99380.00;;;2.10
68743;BMP180;55725;42.758;26.702;2023-03-24T05:06:15;99389.00;;;2.30
68743;BMP180;55725;42.758;26.702;2023-03-24T05:07:56;99383.00;;;2.70
68743;BMP180;55725;42.758;26.702;2023-03-24T05:09:37;99386.00;;;2.80
68743;BMP180;55725;42.758;26.702;2023-03-24T05:11:18;99380.00;;;3.00
68743;BMP180;55725;42.758;26.702;2023-03-24T05:12:58;99391.00;;;2.90
68743;BMP180;55725;42.758;26.702;2023-03-24T05:14:39;99389.00;;;3.00
68743;BMP180;55725;42.758;26.702;2023-03-24T05:16:19;99393.00;;;3.40
68743;BMP180;55725;42.758;26.702;2023-03-24T05:18:00;99389.00;;;3.50
68743;BMP180;55725;42.758;26.702;2023-03-24T05:19:40;99387.00;;;3.60
68743;BMP180;55725;42.758;26.702;2023-03-24T05:21:20;99395.00;;;3.70
68743;BMP180;55725;42.758;26.702;2023-03-24T05:23:01;99391.00;;;3.70
68743;BMP180;55725;42.758;26.702;2023-03-24T05:24:41;99384.00;;;3.70
68743;BMP180;55725;42.758;26.702;2023-03-24T05:26:22;99390.00;;;3.70
68743;BMP180;55725;42.758;26.702;2023-03-24T05:28:02;99390.00;;;3.80
68743;BMP180;55725;42.758;26.702;2023-03-24T05:29:42;99402.00;;;4.00
68743;BMP180;55725;42.758;26.702;2023-03-24T05:31:23;99397.00;;;4.20
68743;BMP180;55725;42.758;26.702;2023-03-24T05:33:03;99393.00;;;4.30
68743;BMP180;55725;42.758;26.702;2023-03-24T05:34:43;99400.00;;;4.30
68743;BMP180;55725;42.758;26.702;2023-03-24T05:36:24;99393.00;;;4.00
68743;BMP180;55725;42.758;26.702;2023-03-24T05:38:04;99387.00;;;3.90
68743;BMP180;55725;42.758;26.702;2023-03-24T05:39:44;99396.00;;;4.40
68743;BMP180;55725;42.758;26.702;2023-03-24T05:41:25;99392.00;;;4.60
68743;BMP180;55725;42.758;26.702;2023-03-24T05:43:05;99392.00;;;4.50
68743;BMP180;55725;42.758;26.702;2023-03-24T05:44:47;99395.00;;;4.70
68743;BMP180;55725;42.758;26.702;2023-03-24T05:46:27;99384.00;;;4.70
68743;BMP180;55725;42.758;26.702;2023-03-24T05:48:07;99394.00;;;4.90
68743;BMP180;55725;42.758;26.702;2023-03-24T05:49:48;99395.00;;;5.40
68743;BMP180;55725;42.758;26.702;2023-03-24T05:51:29;99393.00;;;5.70
68743;BMP180;55725;42.758;26.702;2023-03-24T05:53:09;99401.00;;;5.30
68743;BMP180;55725;42.758;26.702;2023-03-24T05:54:50;99394.00;;;5.30
68743;BMP180;55725;42.758;26.702;2023-03-24T05:56:31;99402.00;;;5.60
68743;BMP180;55725;42.758;26.702;2023-03-24T05:58:11;99388.00;;;6.00
68743;BMP180;55725;42.758;26.702;2023-03-24T05:59:52;99389.00;;;6.10
68743;BMP180;55725;42.758;26.702;2023-03-24T06:01:32;99398.00;;;6.10
68743;BMP180;55725;42.758;26.702;2023-03-24T06:03:12;99393.00;;;6.30
68743;BMP180;55725;42.758;26.702;2023-03-24T06:04:53;99397.00;;;6.30
68743;BMP180;55725;42.758;26.702;2023-03-24T06:06:36;99394.00;;;6.80
68743;BMP180;55725;42.758;26.702;2023-03-24T06:08:17;99392.00;;;6.30
68743;BMP180;55725;42.758;26.702;2023-03-24T06:09:57;99395.00;;;6.40
68743;BMP180;55725;42.758;26.702;2023-03-24T06:11:42;99386.00;;;6.40
68743;BMP180;55725;42.758;26.702;2023-03-24T06:13:23;99389.00;;;6.40
68743;BMP180;55725;42.758;26.702;2023-03-24T06:15:03;99385.00;;;6.80
68743;BMP180;55725;42.758;26.702;2023-03-24T06:16:44;99380.00;;;7.00
68743;BMP180;55725;42.758;26.702;2023-03-24T06:18:25;99382.00;;;7.50
68743;BMP180;55725;42.758;26.702;2023-03-24T06:20:09;99380.00;;;7.70
68743;BMP180;55725;42.758;26.702;2023-03-24T06:21:55;99381.00;;;7.70
68743;BMP180;55725;42.758;26.702;2023-03-24T06:23:37;99377.00;;;8.10
68743;BMP180;55725;42.758;26.702;2023-03-24T06:25:18;99371.00;;;7.90
68743;BMP180;55725;42.758;26.702;2023-03-24T06:27:05;99378.00;;;7.80
68743;BMP180;55725;42.758;26.702;2023-03-24T06:28:47;99380.00;;;8.10
68743;BMP180;55725;42.758;26.702;2023-03-24T06:30:30;99372.00;;;8.10
68743;BMP180;55725;42.758;26.702;2023-03-24T06:32:11;99367.00;;;8.20
68743;BMP180;55725;42.758;26.702;2023-03-24T06:33:51;99370.00;;;8.60
68743;BMP180;55725;42.758;26.702;2023-03-24T06:35:31;99370.00;;;8.90
68743;BMP180;55725;42.758;26.702;2023-03-24T06:37:12;99364.00;;;9.00
68743;BMP180;55725;42.758;26.702;2023-03-24T06:38:52;99365.00;;;9.20
68743;BMP180;55725;42.758;26.702;2023-03-24T06:40:33;99366.00;;;9.10
68743;BMP180;55725;42.758;26.702;2023-03-24T06:42:13;99368.00;;;9.00
68743;BMP180;55725;42.758;26.702;2023-03-24T06:43:53;99360.00;;;9.40
68743;BMP180;55725;42.758;26.702;2023-03-24T06:45:34;99357.00;;;9.60
68743;BMP180;55725;42.758;26.702;2023-03-24T06:47:15;99357.00;;;9.80
68743;BMP180;55725;42.758;26.702;2023-03-24T06:48:56;99355.00;;;9.60
68743;BMP180;55725;42.758;26.702;2023-03-24T06:50:36;99352.00;;;9.40
68743;BMP180;55725;42.758;26.702;2023-03-24T06:52:17;99355.00;;;9.50
68743;BMP180;55725;42.758;26.702;2023-03-24T06:53:57;99349.00;;;9.50
68743;BMP180;55725;42.758;26.702;2023-03-24T06:55:37;99339.00;;;9.40
68743;BMP180;55725;42.758;26.702;2023-03-24T06:57:18;99345.00;;;9.80
68743;BMP180;55725;42.758;26.702;2023-03-24T06:58:58;99343.00;;;10.00
68743;BMP180;55725;42.758;26.702;2023-03-24T07:00:38;99355.00;;;10.10
68743;BMP180;55725;42.758;26.702;2023-03-24T07:02:19;99345.00;;;10.20
68743;BMP180;55725;42.758;26.702;2023-03-24T07:03:59;99340.00;;;10.10
68743;BMP180;55725;42.758;26.702;2023-03-24T07:05:40;99339.00;;;10.40
68743;BMP180;55725;42.758;26.702;2023-03-24T07:07:22;99343.00;;;10.40
68743;BMP180;55725;42.758;26.702;2023-03-24T07:09:03;99340.00;;;10.60
68743;BMP180;55725;42.758;26.702;2023-03-24T07:10:43;99339.00;;;10.60
68743;BMP180;55725;42.758;26.702;2023-03-24T07:12:24;99342.00;;;10.90
68743;BMP180;55725;42.758;26.702;2023-03-24T07:14:04;99336.00;;;11.00
68743;BMP180;55725;42.758;26.702;2023-03-24T07:15:45;99346.00;;;11.00
68743;BMP180;55725;42.758;26.702;2023-03-24T07:17:25;99343.00;;;11.10
68743;BMP180;55725;42.758;26.702;2023-03-24T07:19:05;99326.00;;;11.40
68743;BMP180;55725;42.758;26.702;2023-03-24T07:20:46;99337.00;;;11.60
68743;BMP180;55725;42.758;26.702;2023-03-24T07:22:26;99330.00;;;12.00
68743;BMP180;55725;42.758;26.702;2023-03-24T07:24:06;99328.00;;;12.10
68743;BMP180;55725;42.758;26.702;2023-03-24T07:25:47;99338.00;;;12.20
68743;BMP180;55725;42.758;26.702;2023-03-24T07:27:27;99331.00;;;12.10
68743;BMP180;55725;42.758;26.702;2023-03-24T07:29:07;99331.00;;;12.80
68743;BMP180;55725;42.758;26.702;2023-03-24T07:30:47;99328.00;;;12.30
68743;BMP180;55725;42.758;26.702;2023-03-24T07:32:28;99332.00;;;12.40
68743;BMP180;55725;42.758;26.702;2023-03-24T07:34:09;99327.00;;;12.40
68743;BMP180;55725;42.758;26.702;2023-03-24T07:35:53;99328.00;;;12.80
68743;BMP180;55725;42.758;26.702;2023-03-24T07:37:33;99330.00;;;12.60
68743;BMP180;55725;42.758;26.702;2023-03-24T07:39:13;99332.00;;;12.50
68743;BMP180;55725;42.758;26.702;2023-03-24T07:40:53;99325.00;;;12.80
68743;BMP180;55725;42.758;26.702;2023-03-24T07:42:34;99329.00;;;13.50
68743;BMP180;55725;42.758;26.702;2023-03-24T07:44:14;99335.00;;;13.20
68743;BMP180;55725;42.758;26.702;2023-03-24T07:45:55;99335.00;;;13.50
68743;BMP180;55725;42.758;26.702;2023-03-24T07:47:35;99333.00;;;13.40
68743;BMP180;55725;42.758;26.702;2023-03-24T07:49:15;99324.00;;;13.20
68743;BMP180;55725;42.758;26.702;2023-03-24T07:50:56;99323.00;;;13.70
68743;BMP180;55725;42.758;26.702;2023-03-24T07:52:37;99326.00;;;13.70
68743;BMP180;55725;42.758;26.702;2023-03-24T07:54:17;99326.00;;;13.80
68743;BMP180;55725;42.758;26.702;2023-03-24T07:55:58;99323.00;;;13.80
68743;BMP180;55725;42.758;26.702;2023-03-24T07:57:41;99322.00;;;13.80
68743;BMP180;55725;42.758;26.702;2023-03-24T07:59:21;99326.00;;;14.00
68743;BMP180;55725;42.758;26.702;2023-03-24T08:01:02;99321.00;;;14.30
68743;BMP180;55725;42.758;26.702;2023-03-24T08:02:43;99318.00;;;13.80
68743;BMP180;55725;42.758;26.702;2023-03-24T08:04:24;99316.00;;;13.80
68743;BMP180;55725;42.758;26.702;2023-03-24T08:06:07;99318.00;;;14.30
68743;BMP180;55725;42.758;26.702;2023-03-24T08:07:50;99317.00;;;14.30
68743;BMP180;55725;42.758;26.702;2023-03-24T08:09:34;99314.00;;;14.40
68743;BMP180;55725;42.758;26.702;2023-03-24T08:11:14;99315.00;;;14.70
68743;BMP180;55725;42.758;26.702;2023-03-24T08:12:55;99318.00;;;14.60
68743;BMP180;55725;42.758;26.702;2023-03-24T08:14:36;99311.00;;;14.50
68743;BMP180;55725;42.758;26.702;2023-03-24T08:16:16;99308.00;;;14.90
68743;BMP180;55725;42.758;26.702;2023-03-24T08:17:56;99306.00;;;14.80
68743;BMP180;55725;42.758;26.702;2023-03-24T08:19:37;99300.00;;;15.10
68743;BMP180;55725;42.758;26.702;2023-03-24T08:21:17;99289.00;;;15.20
68743;BMP180;55725;42.758;26.702;2023-03-24T08:22:57;99307.00;;;15.10
68743;BMP180;55725;42.758;26.702;2023-03-24T08:24:39;99307.00;;;15.30
68743;BMP180;55725;42.758;26.702;2023-03-24T08:26:20;99300.00;;;15.70
68743;BMP180;55725;42.758;26.702;2023-03-24T08:28:01;99308.00;;;15.60
68743;BMP180;55725;42.758;26.702;2023-03-24T08:29:42;99298.00;;;15.70
68743;BMP180;55725;42.758;26.702;2023-03-24T08:31:22;99294.00;;;15.20
68743;BMP180;55725;42.758;26.702;2023-03-24T08:33:03;99297.00;;;15.80
68743;BMP180;55725;42.758;26.702;2023-03-24T08:34:44;99291.00;;;15.80
68743;BMP180;55725;42.758;26.702;2023-03-24T08:36:24;99280.00;;;15.90
68743;BMP180;55725;42.758;26.702;2023-03-24T08:38:07;99289.00;;;15.70
68743;BMP180;55725;42.758;26.702;2023-03-24T08:39:47;99284.00;;;15.50
68743;BMP180;55725;42.758;26.702;2023-03-24T08:41:27;99282.00;;;15.70
68743;BMP180;55725;42.758;26.702;2023-03-24T08:43:14;99286.00;;;16.30
68743;BMP180;55725;42.758;26.702;2023-03-24T08:44:54;99284.00;;;15.90
68743;BMP180;55725;42.758;26.702;2023-03-24T08:46:35;99285.00;;;16.30
68743;BMP180;55725;42.758;26.702;2023-03-24T08:48:15;99289.00;;;16.40
68743;BMP180;55725;42.758;26.702;2023-03-24T08:49:55;99289.00;;;16.60
68743;BMP180;55725;42.758;26.702;2023-03-24T08:51:39;99275.00;;;16.60
68743;BMP180;55725;42.758;26.702;2023-03-24T08:53:19;99284.00;;;16.10
68743;BMP180;55725;42.758;26.702;2023-03-24T08:55:00;99285.00;;;16.20
68743;BMP180;55725;42.758;26.702;2023-03-24T08:56:41;99292.00;;;16.90
68743;BMP180;55725;42.758;26.702;2023-03-24T08:58:21;99285.00;;;16.90
68743;BMP180;55725;42.758;26.702;2023-03-24T09:00:02;99288.00;;;16.60
68743;BMP180;55725;42.758;26.702;2023-03-24T09:01:49;99285.00;;;16.90
68743;BMP180;55725;42.758;26.702;2023-03-24T09:03:29;99283.00;;;16.70
68743;BMP180;55725;42.758;26.702;2023-03-24T09:05:11;99272.00;;;16.80
68743;BMP180;55725;42.758;26.702;2023-03-24T09:06:52;99283.00;;;16.40
68743;BMP180;55725;42.758;26.702;2023-03-24T09:08:32;99274.00;;;17.00
68743;BMP180;55725;42.758;26.702;2023-03-24T09:10:13;99278.00;;;17.70
68743;BMP180;55725;42.758;26.702;2023-03-24T09:11:53;99281.00;;;16.40
68743;BMP180;55725;42.758;26.702;2023-03-24T09:13:34;99281.00;;;17.40
68743;BMP180;55725;42.758;26.702;2023-03-24T09:15:14;99263.00;;;16.50
68743;BMP180;55725;42.758;26.702;2023-03-24T09:16:54;99275.00;;;16.40
68743;BMP180;55725;42.758;26.702;2023-03-24T09:18:35;99280.00;;;16.60
68743;BMP180;55725;42.758;26.702;2023-03-24T09:20:16;99267.00;;;16.20
68743;BMP180;55725;42.758;26.702;2023-03-24T09:21:57;99269.00;;;15.90
68743;BMP180;55725;42.758;26.702;2023-03-24T09:23:37;99278.00;;;16.30
68743;BMP180;55725;42.758;26.702;2023-03-24T09:25:19;99280.00;;;16.70
68743;BMP180;55725;42.758;26.702;2023-03-24T09:27:00;99284.00;;;16.80
68743;BMP180;55725;42.758;26.702;2023-03-24T09:28:40;99278.00;;;17.40
68743;BMP180;55725;42.758;26.702;2023-03-24T09:30:20;99282.00;;;17.20
68743;BMP180;55725;42.758;26.702;2023-03-24T09:32:00;99272.00;;;17.30
68743;BMP180;55725;42.758;26.702;2023-03-24T09:33:41;99270.00;;;17.50
68743;BMP180;55725;42.758;26.702;2023-03-24T09:35:21;99275.00;;;17.00
68743;BMP180;55725;42.758;26.702;2023-03-24T09:37:01;99263.00;;;16.90
68743;BMP180;55725;42.758;26.702;2023-03-24T09:38:42;99264.00;;;18.40
68743;BMP180;55725;42.758;26.702;2023-03-24T09:40:23;99259.00;;;17.80
68743;BMP180;55725;42.758;26.702;2023-03-24T09:42:05;99266.00;;;17.60
68743;BMP180;55725;42.758;26.702;2023-03-24T09:43:51;99263.00;;;18.10
68743;BMP180;55725;42.758;26.702;2023-03-24T09:45:39;99262.00;;;17.90
68743;BMP180;55725;42.758;26.702;2023-03-24T09:49:05;99256.00;;;18.10
68743;BMP180;55725;42.758;26.702;2023-03-24T09:50:50;99258.00;;;17.90
68743;BMP180;55725;42.758;26.702;2023-03-24T09:52:34;99261.00;;;17.70
68743;BMP180;55725;42.758;26.702;2023-03-24T09:55:56;99262.00;;;17.60
68743;BMP180;55725;42.758;26.702;2023-03-24T09:57:38;99253.00;;;17.90
68743;BMP180;55725;42.758;26.702;2023-03-24T09:59:20;99260.00;;;18.00
68743;BMP180;55725;42.758;26.702;2023-03-24T10:01:03;99274.00;;;19.00
68743;BMP180;55725;42.758;26.702;2023-03-24T10:02:43;99261.00;;;17.90
68743;BMP180;55725;42.758;26.702;2023-03-24T10:04:25;99266.00;;;17.60
68743;BMP180;55725;42.758;26.702;2023-03-24T10:07:51;99267.00;;;17.80
68743;BMP180;55725;42.758;26.702;2023-03-24T10:09:36;99264.00;;;17.30
68743;BMP180;55725;42.758;26.702;2023-03-24T10:13:05;99271.00;;;18.60
68743;BMP180;55725;42.758;26.702;2023-03-24T10:14:52;99262.00;;;17.50
68743;BMP180;55725;42.758;26.702;2023-03-24T10:16:42;99262.00;;;18.80
68743;BMP180;55725;42.758;26.702;2023-03-24T10:22:10;99261.00;;;18.30
68743;BMP180;55725;42.758;26.702;2023-03-24T10:24:00;99255.00;;;19.30
68743;BMP180;55725;42.758;26.702;2023-03-24T10:25:50;99253.00;;;18.40
68743;BMP180;55725;42.758;26.702;2023-03-24T10:27:53;99253.00;;;19.30
68743;BMP180;55725;42.758;26.702;2023-03-24T10:29:34;99252.00;;;19.50
68743;BMP180;55725;42.758;26.702;2023-03-24T10:31:15;99257.00;;;18.40
68743;BMP180;55725;42.758;26.702;2023-03-24T10:32:56;99246.00;;;18.60
68743;BMP180;55725;42.758;26.702;2023-03-24T10:34:37;99253.00;;;17.90
68743;BMP180;55725;42.758;26.702;2023-03-24T10:36:19;99255.00;;;18.00
68743;BMP180;55725;42.758;26.702;2023-03-24T10:37:59;99244.00;;;18.20
68743;BMP180;55725;42.758;26.702;2023-03-24T10:39:41;99243.00;;;18.80
68743;BMP180;55725;42.758;26.702;2023-03-24T10:41:23;99247.00;;;19.50
68743;BMP180;55725;42.758;26.702;2023-03-24T10:43:03;99247.00;;;20.20
68743;BMP180;55725;42.758;26.702;2023-03-24T10:44:45;99240.00;;;19.50
68743;BMP180;55725;42.758;26.702;2023-03-24T10:46:26;99238.00;;;18.90
68743;BMP180;55725;42.758;26.702;2023-03-24T10:48:07;99241.00;;;19.50
68743;BMP180;55725;42.758;26.702;2023-03-24T10:49:58;99229.00;;;18.80
68743;BMP180;55725;42.758;26.702;2023-03-24T10:51:43;99237.00;;;19.70
68743;BMP180;55725;42.758;26.702;2023-03-24T10:53:25;99228.00;;;18.90
68743;BMP180;55725;42.758;26.702;2023-03-24T10:55:06;99231.00;;;18.80
68743;BMP180;55725;42.758;26.702;2023-03-24T10:56:50;99226.00;;;20.60
68743;BMP180;55725;42.758;26.702;2023-03-24T10:58:35;99223.00;;;20.50